KFOK

Francis S Gabreski Airport

Westhampton Beach, New York, USA
METAR KFOK 210355Z 00000KT 10SM CLR M04/M08 A3004 RMK AO2 T10391078
Observed Flight Rules
Jan-21 @ 03:55 UTC (55 minutes ago) Visual Flight Rules
Wind Visibility Clouds
Calm 10 miles
  • Clear skies
Temperatures Readings
Current -4°C / 25°F
Dewpoint -8°C / 18°F
Humidity 74%
Altimeter 30.04" Hg
Pressure 1017 hPa
Elevation 33
METAR KFOK 210355Z 00000KT 10SM CLR M04/M08 A3004 RMK AO2 T10391078
Observed Flight Rules
Jan-21 @ 03:55 UTC
(55 minutes ago)
VFR
Wind Visibility
Calm 10 miles
Clouds
  • Clear skies
Temperature Dewpoint
-4°C / 25°F -8°C / 18°F
Humidity Altimeter Pressure
74% 30.04" Hg 1017 hPa